Nash, Texas
Current Conditions -  °F | °C
As of 8:13 PM on Thursday 20 Nov 2014 (Local Time) from KTXK Reporting Station
Haze Haze  
Wind Chill: 49°   Ceiling: 6500
Heat Index: 49°   Visibility: 2.5mi
Dew Point: 48°   Wind: 3mph
Humidity: 97%   Direction: 60°ENE
Pressure: 30.12"   Gusts: NA
Location:  33.44°N, 94.13°W
Report Text: KTXK 210213Z 06003KT 2 1/2SM BR SCT046 BKN065 09/09 A3012 RMK AO2 T00940089
Loading
Personal Weather Stations






























Interactive Weather Map New forecast layout! Learn more

10-Day Weather Forecast

Advertisements
Track Severe Weather on mobile